createdAt,value
2024-04-10T00:00:16.656Z,3.372227
2024-04-10T00:05:17.083Z,3.005975
2024-04-10T00:10:17.122Z,3.115977
2024-04-10T00:15:17.272Z,2.963646
2024-04-10T00:20:16.209Z,2.814575
2024-04-10T00:25:17.211Z,2.829224
2024-04-10T00:30:16.482Z,1.648782
2024-04-10T00:35:17.869Z,1.565284
2024-04-10T00:40:16.320Z,1.363721
2024-04-10T00:45:16.668Z,0.998069
2024-04-10T00:50:16.414Z,0.812382
2024-04-10T00:55:16.602Z,0.791105
2024-04-10T01:00:16.054Z,0.839536
2024-04-10T01:05:16.590Z,0.802716
2024-04-10T01:10:16.799Z,0.719586
2024-04-10T01:15:16.559Z,0.659232
2024-04-10T01:20:16.276Z,0.599074
2024-04-10T01:25:16.604Z,0.545661
2024-04-10T01:30:16.832Z,0.536318
2024-04-10T01:35:16.708Z,0.486281
2024-04-10T01:40:16.532Z,0.420086
2024-04-10T01:45:17.133Z,0.396366
2024-04-10T01:50:17.024Z,0.352865
2024-04-10T01:55:16.583Z,0.290689
2024-04-10T02:00:16.887Z,0.244629
2024-04-10T02:05:16.673Z,0.215710
2024-04-10T02:10:16.331Z,0.177548
2024-04-10T02:15:16.395Z,0.143780
2024-04-10T02:20:16.725Z,0.121202
2024-04-10T02:25:16.620Z,0.105478
2024-04-10T02:30:17.340Z,0.092606
2024-04-10T02:35:18.915Z,0.079171
2024-04-10T02:40:17.278Z,0.066737
2024-04-10T02:45:16.974Z,0.056787
2024-04-10T02:50:17.347Z,0.054306
2024-04-10T02:55:17.029Z,0.050417
2024-04-10T03:00:17.315Z,0.047315
2024-04-10T03:05:16.845Z,0.044385
2024-04-10T03:10:17.296Z,0.039765
2024-04-10T03:15:16.347Z,0.039415
2024-04-10T03:20:16.737Z,0.039846
2024-04-10T03:25:16.747Z,0.039268
2024-04-10T03:30:16.945Z,0.038930
2024-04-10T03:35:16.380Z,0.039012
2024-04-10T03:40:16.458Z,0.037576
2024-04-10T03:45:17.034Z,0.038691
2024-04-10T03:50:19.167Z,0.038278
2024-04-10T03:55:17.325Z,0.038393
2024-04-10T04:00:17.017Z,0.039157
2024-04-10T04:05:16.733Z,0.038957
2024-04-10T04:10:16.564Z,0.038424
2024-04-10T04:15:17.428Z,0.038566
2024-04-10T04:20:16.438Z,0.038879
2024-04-10T04:25:16.734Z,0.039598
2024-04-10T04:30:16.282Z,0.039277
2024-04-10T04:35:21.311Z,0.039137
2024-04-10T04:40:16.832Z,0.039415
2024-04-10T04:45:16.841Z,0.039593
2024-04-10T04:50:16.697Z,0.038529
2024-04-10T04:55:16.771Z,0.039040
2024-04-10T05:00:16.753Z,0.039530
2024-04-10T05:05:16.425Z,0.039415
2024-04-10T05:10:16.605Z,0.040103
2024-04-10T05:15:17.113Z,0.040415
2024-04-10T05:20:18.531Z,0.040043
2024-04-10T05:25:16.503Z,0.039392
2024-04-10T05:30:17.441Z,0.039151
2024-04-10T05:35:16.799Z,0.038781
2024-04-10T05:40:16.517Z,0.039506
2024-04-10T05:45:17.220Z,0.039249
2024-04-10T05:50:16.694Z,0.038027
2024-04-10T05:55:17.376Z,0.038854
2024-04-10T06:00:16.190Z,0.038315
2024-04-10T06:05:16.155Z,0.038655
2024-04-10T06:10:16.318Z,0.037311
2024-04-10T06:15:16.661Z,0.036975
2024-04-10T06:20:17.275Z,0.036603
2024-04-10T06:25:17.320Z,0.036970
2024-04-10T06:30:16.918Z,0.036912
2024-04-10T06:35:16.614Z,0.037193
2024-04-10T06:40:16.696Z,0.039229
2024-04-10T06:45:17.595Z,0.038169
2024-04-10T06:50:17.231Z,0.039872
2024-04-10T06:55:17.354Z,0.040699
2024-04-10T07:00:16.418Z,0.040441
2024-04-10T07:05:16.672Z,0.040731
2024-04-10T07:10:16.406Z,0.040024
2024-04-10T07:15:17.175Z,0.038015
2024-04-10T07:20:17.252Z,0.038388
2024-04-10T07:25:18.060Z,0.036438
2024-04-10T07:30:17.022Z,0.039490
2024-04-10T07:35:16.269Z,0.038420
2024-04-10T07:40:16.337Z,0.038463
2024-04-10T07:45:17.167Z,0.038554
2024-04-10T07:50:17.015Z,0.037913
2024-04-10T07:55:16.134Z,0.039328
2024-04-10T08:00:17.181Z,0.037304
2024-04-10T08:05:17.096Z,0.038103
2024-04-10T08:10:16.599Z,0.037813
2024-04-10T08:15:17.107Z,0.038646
2024-04-10T08:20:17.409Z,0.038204
2024-04-10T08:25:17.187Z,0.038028
2024-04-10T08:30:16.304Z,0.038015
2024-04-10T08:35:16.667Z,0.037558
2024-04-10T08:40:16.583Z,0.038040
2024-04-10T08:45:18.039Z,0.037710
2024-04-10T08:50:16.844Z,0.038167
2024-04-10T08:55:16.609Z,0.037597
2024-04-10T09:00:16.984Z,0.037318
2024-04-10T09:05:18.308Z,0.036684
2024-04-10T09:10:17.122Z,0.037926
2024-04-10T09:15:16.426Z,0.036556
2024-04-10T09:20:16.896Z,0.038270
2024-04-10T09:25:16.720Z,0.038147
2024-04-10T09:30:16.782Z,0.039314
2024-04-10T09:35:16.747Z,0.038164
2024-04-10T09:40:16.592Z,0.037632
2024-04-10T09:45:16.589Z,0.036816
2024-04-10T09:50:16.438Z,0.039045
2024-04-10T09:55:16.894Z,0.038467
2024-04-10T10:00:16.760Z,0.039172
2024-04-10T10:05:16.504Z,0.039040
2024-04-10T10:10:16.825Z,0.038736
2024-04-10T10:15:16.257Z,0.039627
2024-04-10T10:20:16.482Z,0.039193
2024-04-10T10:25:16.311Z,0.039694
2024-04-10T10:30:16.534Z,0.038903
2024-04-10T10:35:19.744Z,0.039945
2024-04-10T10:40:16.875Z,0.039478
2024-04-10T10:45:16.485Z,0.040101
2024-04-10T10:50:16.634Z,0.040541
2024-04-10T10:55:16.392Z,0.039165
2024-04-10T11:00:16.504Z,0.039152
2024-04-10T11:05:22.030Z,0.039427
2024-04-10T11:10:16.524Z,0.040186
2024-04-10T11:15:17.448Z,0.038791
2024-04-10T11:20:16.656Z,0.040443
2024-04-10T11:25:16.969Z,0.039109
2024-04-10T11:30:22.391Z,0.039996
2024-04-10T11:35:16.297Z,0.039732
2024-04-10T11:40:16.412Z,0.040257
2024-04-10T11:45:16.926Z,0.040478
2024-04-10T11:50:17.238Z,0.040351
2024-04-10T11:55:16.715Z,0.038429
2024-04-10T12:00:17.210Z,0.040481
2024-04-10T12:05:16.782Z,0.041534
2024-04-10T12:10:16.694Z,0.040666
2024-04-10T12:15:16.418Z,0.038810
2024-04-10T12:20:16.931Z,0.039895
2024-04-10T12:25:17.848Z,0.040794
2024-04-10T12:30:16.863Z,0.040032
2024-04-10T12:35:17.074Z,0.040032
2024-04-10T12:40:16.538Z,0.039719
2024-04-10T12:45:16.996Z,0.040824
2024-04-10T12:50:16.859Z,0.039506
2024-04-10T12:55:16.267Z,0.038997
2024-04-10T13:00:16.434Z,0.038754
2024-04-10T13:05:17.718Z,0.040667
2024-04-10T13:10:16.365Z,0.041462
2024-04-10T13:15:17.780Z,0.045000
2024-04-10T13:20:16.871Z,0.047550
2024-04-10T13:25:16.374Z,0.051654
2024-04-10T13:30:17.199Z,0.055759
2024-04-10T13:35:17.112Z,0.068485
2024-04-10T13:40:16.846Z,0.089384
2024-04-10T13:45:17.334Z,0.112896
2024-04-10T13:50:17.079Z,0.133103
2024-04-10T13:55:16.870Z,0.169692
2024-04-10T14:00:16.974Z,0.208644
2024-04-10T14:05:16.350Z,0.251395
2024-04-10T14:10:16.540Z,0.284859
2024-04-10T14:15:17.278Z,0.339519
2024-04-10T14:20:16.568Z,0.390558
2024-04-10T14:25:16.682Z,0.432217
2024-04-10T14:30:16.241Z,0.473948
2024-04-10T14:35:16.593Z,0.522685
2024-04-10T14:40:17.197Z,0.570421
2024-04-10T14:45:16.360Z,0.619902
2024-04-10T14:50:16.275Z,0.684632
2024-04-10T14:55:16.428Z,0.763643
2024-04-10T15:00:16.949Z,0.861670
2024-04-10T15:05:17.550Z,0.932116
2024-04-10T15:10:16.403Z,1.020434
2024-04-10T15:15:16.760Z,1.150696
2024-04-10T15:20:16.852Z,1.281891
2024-04-10T15:25:16.637Z,1.298127
2024-04-10T15:30:17.138Z,1.308963
2024-04-10T15:35:16.341Z,1.457027
2024-04-10T15:40:16.988Z,1.579614
2024-04-10T15:45:16.620Z,1.586914
2024-04-10T15:50:17.183Z,1.642801
2024-04-10T15:55:16.671Z,2.004980
2024-04-10T16:00:16.675Z,2.164099
2024-04-10T16:05:16.513Z,1.960845
2024-04-10T16:10:17.100Z,1.978339
2024-04-10T16:15:16.514Z,2.169896
2024-04-10T16:20:16.635Z,2.508611
2024-04-10T16:25:16.340Z,2.566492
2024-04-10T16:30:17.064Z,2.659612
2024-04-10T16:35:16.477Z,3.127694
2024-04-10T16:40:16.276Z,3.234826
2024-04-10T16:45:16.714Z,3.116266
2024-04-10T16:50:16.806Z,2.815743
2024-04-10T16:55:16.520Z,3.023888
2024-04-10T17:00:17.035Z,3.339446
2024-04-10T17:05:17.118Z,3.456591
2024-04-10T17:10:16.701Z,3.493749
2024-04-10T17:15:16.860Z,3.871771
2024-04-10T17:20:16.829Z,3.976062
2024-04-10T17:25:17.354Z,4.088969
2024-04-10T17:30:17.325Z,4.144639
2024-04-10T17:35:16.556Z,4.403608
2024-04-10T17:40:16.751Z,4.593360
2024-04-10T17:45:17.678Z,4.776913
2024-04-10T17:50:17.746Z,4.443971
2024-04-10T17:55:17.714Z,4.903738
2024-04-10T18:00:16.618Z,4.987365
2024-04-10T18:05:16.592Z,5.095859
2024-04-10T18:10:16.656Z,5.070408
2024-04-10T18:15:16.883Z,5.066450
2024-04-10T18:20:16.465Z,5.061378
2024-04-10T18:25:16.554Z,5.183453
2024-04-10T18:30:16.611Z,5.202300
2024-04-10T18:35:17.160Z,5.317017
2024-04-10T18:40:17.471Z,5.353421
2024-04-10T18:45:18.968Z,5.408080
2024-04-10T18:50:16.918Z,5.658528
2024-04-10T18:55:16.594Z,5.713551
2024-04-10T19:00:16.331Z,5.822198
2024-04-10T19:05:16.833Z,5.776466
2024-04-10T19:10:16.127Z,5.599255
2024-04-10T19:15:16.477Z,5.730324
2024-04-10T19:20:16.739Z,5.978681
2024-04-10T19:25:16.683Z,5.936761
2024-04-10T19:30:17.028Z,5.946097
2024-04-10T19:35:16.773Z,5.970166
2024-04-10T19:40:16.490Z,5.994959
2024-04-10T19:45:17.498Z,5.846262
2024-04-10T19:50:17.054Z,5.950874
2024-04-10T19:55:16.959Z,6.090533
2024-04-10T20:00:16.621Z,6.295348
2024-04-10T20:05:17.055Z,6.139746
2024-04-10T20:10:16.794Z,6.178150
2024-04-10T20:15:16.305Z,6.282270
2024-04-10T20:20:16.564Z,6.203925
2024-04-10T20:25:16.376Z,5.996378
2024-04-10T20:30:16.526Z,5.863382
2024-04-10T20:35:17.354Z,6.034785
2024-04-10T20:40:16.506Z,6.166449
2024-04-10T20:45:16.335Z,6.042522
2024-04-10T20:50:16.333Z,6.121527
2024-04-10T20:55:18.306Z,5.980180
2024-04-10T21:00:16.743Z,5.786164
2024-04-10T21:05:16.435Z,5.611134
2024-04-10T21:10:16.574Z,5.804001
2024-04-10T21:15:16.789Z,6.067908
2024-04-10T21:20:16.439Z,5.995435
2024-04-10T21:25:17.164Z,5.613149
2024-04-10T21:30:16.488Z,5.560476
2024-04-10T21:35:16.433Z,5.671282
2024-04-10T21:40:16.642Z,5.481715
2024-04-10T21:45:16.686Z,4.955694
2024-04-10T21:50:16.295Z,4.434883
2024-04-10T21:55:16.223Z,4.464983
2024-04-10T22:00:37.045Z,4.216818
2024-04-10T22:05:17.513Z,3.991708
2024-04-10T22:10:16.255Z,4.060658
2024-04-10T22:15:16.401Z,3.963216
2024-04-10T22:20:16.796Z,3.787258
2024-04-10T22:25:16.614Z,3.814120
2024-04-10T22:30:16.431Z,4.011870
2024-04-10T22:35:18.491Z,3.904721
2024-04-10T22:40:16.346Z,3.679545
2024-04-10T22:45:16.420Z,3.383261
2024-04-10T22:50:17.139Z,3.028611
2024-04-10T22:55:16.521Z,2.858279
2024-04-10T23:00:16.273Z,2.727628
2024-04-10T23:05:31.367Z,2.473525
2024-04-10T23:10:16.322Z,2.462848
2024-04-10T23:15:17.572Z,2.360073
2024-04-10T23:20:16.899Z,2.290113
2024-04-10T23:25:18.129Z,2.150245
2024-04-10T23:30:16.416Z,2.077476
2024-04-10T23:35:16.358Z,2.153047
2024-04-10T23:40:17.545Z,2.299200
2024-04-10T23:45:16.236Z,2.387362
2024-04-10T23:50:17.142Z,2.166754
2024-04-10T23:55:17.881Z,1.801166
